PWSweather.com
Personal Weather Stations
Station Observations
MIDDLECKWX
Middle Creek, Prestonsburg, KY 41653

Middle CreekPrestonsburg, KY 41653

Lat: 37.652135, Lon: -82.829846

Elevation: 760

Station Type:

Latest ConditionsUpdated 3:30:51 PM EST Sunday, Jan 21, 2018
Currently Today's Max Today's Min Today's Average
Temperature 61.9°F16.6°C 62.1°F16.7°C 38.7°F3.7°C 52.5°F11.4°C
Dew Point 46.0°F7.8°C 46.4°F8.0°C 23.0°F-5.0°C 40.6°F4.8°C
Winds Calm Calm Calm Calm - Calm Calm
Wind Gusts -- -- - -
Humidity 56% 74% 53% 64%
Pressure 30.09 in1019.0 mb 30.20 in1022.7 mb 30.09 in1019.0 mb -
Hour Temp Dew Point Humidity Winds Wind Gusts Pressure Precip Precip Rate Daily Precip Total
03:30 PM 61.9°F16.6°C 46.0°F7.8°C 56% Calm Calm -- 30.09 in1019.0 mb - 0.00 in0.0 mm 0.00 in0.0 mm
03:21 PM 62.1°F16.7°C 46.2°F7.9°C 56% Calm Calm -- 30.09 in1019.0 mb - 0.00 in0.0 mm 0.00 in0.0 mm
03:10 PM 61.7°F16.5°C 45.8°F7.7°C 56% Calm Calm -- 30.09 in1019.0 mb - 0.00 in0.0 mm 0.00 in0.0 mm
03:00 PM 61.0°F16.1°C 45.6°F7.6°C 57% Calm Calm -- 30.10 in1019.3 mb - 0.00 in0.0 mm 0.00 in0.0 mm
02:50 PM 61.2°F16.2°C 45.8°F7.7°C 57% Calm Calm -- 30.09 in1019.0 mb - 0.00 in0.0 mm 0.00 in0.0 mm
02:40 PM 60.8°F16.0°C 45.9°F7.7°C 58% Calm Calm -- 30.10 in1019.3 mb - 0.00 in0.0 mm 0.00 in0.0 mm
02:30 PM 60.6°F15.9°C 45.3°F7.4°C 57% Calm Calm -- 30.11 in1019.6 mb - 0.00 in0.0 mm 0.00 in0.0 mm
02:20 PM 60.8°F16.0°C 46.4°F8.0°C 59% Calm Calm -- 30.10 in1019.3 mb - 0.00 in0.0 mm 0.00 in0.0 mm
02:10 PM 59.5°F15.3°C 45.6°F7.6°C 60% Calm Calm -- 30.11 in1019.6 mb - 0.00 in0.0 mm 0.00 in0.0 mm
02:00 PM 59.5°F15.3°C 46.1°F7.8°C 61% Calm Calm -- 30.11 in1019.6 mb - 0.00 in0.0 mm 0.00 in0.0 mm
01:50 PM 59.2°F15.1°C 45.7°F7.6°C 61% Calm Calm -- 30.11 in1019.6 mb - 0.00 in0.0 mm 0.00 in0.0 mm
01:40 PM 59.4°F15.2°C 46.3°F7.9°C 62% Calm Calm -- 30.12 in1020.0 mb - 0.00 in0.0 mm 0.00 in0.0 mm
01:30 PM 59.0°F15.0°C 46.0°F7.8°C 62% Calm Calm -- 30.12 in1020.0 mb - 0.00 in0.0 mm 0.00 in0.0 mm
01:20 PM 58.5°F14.7°C 45.5°F7.5°C 62% Calm Calm -- 30.12 in1020.0 mb - 0.00 in0.0 mm 0.00 in0.0 mm
01:10 PM 57.7°F14.3°C 45.2°F7.3°C 63% Calm Calm -- 30.13 in1020.3 mb - 0.00 in0.0 mm 0.00 in0.0 mm
01:00 PM 57.7°F14.3°C 46.0°F7.8°C 65% Calm Calm -- 30.14 in1020.7 mb - 0.00 in0.0 mm 0.00 in0.0 mm
12:50 PM 56.7°F13.7°C 45.0°F7.2°C 65% Calm Calm -- 30.14 in1020.7 mb - 0.00 in0.0 mm 0.00 in0.0 mm
12:40 PM 54.0°F12.2°C 44.4°F6.9°C 70% Calm Calm -- 30.14 in1020.7 mb - 0.00 in0.0 mm 0.00 in0.0 mm
12:30 PM 51.8°F11.0°C 43.4°F6.3°C 73% Calm Calm -- 30.15 in1021.0 mb - 0.00 in0.0 mm 0.00 in0.0 mm
12:20 PM 49.6°F9.8°C 41.7°F5.4°C 74% Calm Calm -- 30.16 in1021.3 mb - 0.00 in0.0 mm 0.00 in0.0 mm
12:10 PM 48.4°F9.1°C 40.5°F4.7°C 74% Calm Calm -- 30.17 in1021.7 mb - 0.00 in0.0 mm 0.00 in0.0 mm
12:00 PM 47.3°F8.5°C 38.7°F3.7°C 72% Calm Calm -- 30.16 in1021.3 mb - 0.00 in0.0 mm 0.00 in0.0 mm
11:50 AM 46.0°F7.8°C 37.9°F3.3°C 73% Calm Calm -- 30.18 in1022.0 mb - 0.00 in0.0 mm 0.00 in0.0 mm
11:40 AM 45.3°F7.4°C 37.2°F2.9°C 73% Calm Calm -- 30.18 in1022.0 mb - 0.00 in0.0 mm 0.00 in0.0 mm
11:30 AM 44.6°F7.0°C 36.5°F2.5°C 73% Calm Calm -- 30.19 in1022.4 mb - 0.00 in0.0 mm 0.00 in0.0 mm
11:20 AM 42.3°F5.7°C 33.9°F1.1°C 72% Calm Calm -- 30.19 in1022.4 mb - 0.00 in0.0 mm 0.00 in0.0 mm
11:10 AM 42.3°F5.7°C 33.9°F1.1°C 72% Calm Calm -- 30.19 in1022.4 mb - 0.00 in0.0 mm 0.00 in0.0 mm
11:00 AM 42.3°F5.7°C 33.9°F1.1°C 72% Calm Calm -- 30.19 in1022.4 mb - 0.00 in0.0 mm 0.00 in0.0 mm
10:50 AM 41.7°F5.4°C 32.7°F0.4°C 70% Calm Calm -- 30.19 in1022.4 mb - 0.00 in0.0 mm 0.00 in0.0 mm
10:40 AM 41.0°F5.0°C 29.4°F-1.4°C 63% Calm Calm -- 30.20 in1022.7 mb - 0.00 in0.0 mm 0.00 in0.0 mm
10:30 AM 40.1°F4.5°C 28.5°F-1.9°C 63% Calm Calm -- 30.20 in1022.7 mb - 0.00 in0.0 mm 0.00 in0.0 mm
10:20 AM 39.7°F4.3°C 27.0°F-2.8°C 60% Calm Calm -- 30.20 in1022.7 mb - 0.00 in0.0 mm 0.00 in0.0 mm
10:10 AM 38.7°F3.7°C 23.0°F-5.0°C 53% Calm Calm -- 30.20 in1022.7 mb - 0.00 in0.0 mm 0.00 in0.0 mm